createdAt,value
2023-12-03T00:00:13.102Z,97.97
2023-12-03T00:02:16.446Z,97.14
2023-12-03T00:04:19.732Z,97.61
2023-12-03T00:06:23.044Z,96.76
2023-12-03T00:08:32.250Z,96.17
2023-12-03T00:10:42.699Z,97.52
2023-12-03T00:12:47.164Z,97.47
2023-12-03T00:14:50.787Z,98.05
2023-12-03T00:16:53.701Z,97.93
2023-12-03T00:18:56.765Z,98.43
2023-12-03T00:21:00.021Z,97.83
2023-12-03T00:23:04.531Z,96.73
2023-12-03T00:25:08.295Z,97.26
2023-12-03T00:27:11.333Z,97.98
2023-12-03T00:29:15.691Z,98.47
2023-12-03T00:31:18.817Z,98.86
2023-12-03T00:33:21.799Z,98.86
2023-12-03T00:35:24.873Z,98.96
2023-12-03T00:37:28.165Z,98.91
2023-12-03T00:39:31.944Z,98.75
2023-12-03T00:41:34.891Z,98.95
2023-12-03T00:43:38.247Z,98.72
2023-12-03T00:45:42.762Z,98.70
2023-12-03T00:47:45.820Z,98.86
2023-12-03T00:49:48.799Z,97.18
2023-12-03T00:51:52.049Z,97.80
2023-12-03T00:53:54.922Z,97.83
2023-12-03T00:55:58.075Z,98.07
2023-12-03T00:58:01.071Z,98.79
2023-12-03T01:00:04.446Z,99.30
2023-12-03T01:02:09.144Z,98.89
2023-12-03T01:04:12.340Z,98.71
2023-12-03T01:06:15.321Z,98.84
2023-12-03T01:08:18.534Z,98.08
2023-12-03T01:10:21.628Z,98.17
2023-12-03T01:12:24.592Z,98.83
2023-12-03T01:14:27.868Z,98.51
2023-12-03T01:16:31.090Z,98.85
2023-12-03T01:18:35.500Z,97.66
2023-12-03T01:20:38.577Z,97.63
2023-12-03T01:22:41.480Z,97.64
2023-12-03T01:24:44.559Z,97.94
2023-12-03T01:26:47.566Z,97.67
2023-12-03T01:28:50.774Z,97.69
2023-12-03T01:30:53.995Z,97.79
2023-12-03T01:32:57.151Z,97.23
2023-12-03T01:35:01.593Z,97.34
2023-12-03T01:37:04.807Z,97.46
2023-12-03T01:39:08.072Z,97.37
2023-12-03T01:41:11.015Z,97.68
2023-12-03T01:43:13.880Z,97.75
2023-12-03T01:45:17.151Z,97.26
2023-12-03T01:47:21.094Z,96.45
2023-12-03T01:49:24.268Z,96.83
2023-12-03T01:51:29.467Z,95.91
2023-12-03T01:53:32.925Z,96.07
2023-12-03T01:55:36.908Z,95.61
2023-12-03T01:57:40.610Z,94.87
2023-12-03T01:59:43.745Z,95.68
2023-12-03T02:01:47.030Z,95.59
2023-12-03T02:03:50.275Z,96.02
2023-12-03T02:06:03.698Z,95.30
2023-12-03T02:08:08.242Z,95.56
2023-12-03T02:10:11.441Z,95.81
2023-12-03T02:12:14.823Z,95.01
2023-12-03T02:14:17.858Z,94.84
2023-12-03T02:16:20.794Z,95.54
2023-12-03T02:18:24.504Z,96.69
2023-12-03T02:20:27.634Z,95.43
2023-12-03T02:22:30.571Z,95.38
2023-12-03T02:24:35.905Z,95.38
2023-12-03T02:26:39.133Z,95.99
2023-12-03T02:28:42.024Z,96.21
2023-12-03T02:30:45.641Z,96.26
2023-12-03T02:32:49.649Z,96.56
2023-12-03T02:34:52.656Z,97.33
2023-12-03T02:36:55.617Z,97.87
2023-12-03T02:38:58.807Z,98.47
2023-12-03T02:41:03.438Z,98.34
2023-12-03T02:43:06.476Z,98.22
2023-12-03T02:45:11.006Z,98.22
2023-12-03T02:47:14.056Z,98.42
2023-12-03T02:49:17.121Z,99.09
2023-12-03T02:51:20.390Z,98.83
2023-12-03T02:53:23.339Z,99.24
2023-12-03T02:55:26.308Z,98.74
2023-12-03T02:57:30.758Z,98.87
2023-12-03T02:59:33.777Z,98.44
2023-12-03T03:01:37.095Z,98.83
2023-12-03T03:03:40.197Z,99.16
2023-12-03T03:05:43.351Z,98.92
2023-12-03T03:07:46.506Z,99.61
2023-12-03T03:09:49.330Z,99.50
2023-12-03T03:11:53.534Z,99.73
2023-12-03T03:13:57.966Z,100.00
2023-12-03T03:16:01.693Z,100.00
2023-12-03T03:18:04.743Z,100.00
2023-12-03T03:20:09.624Z,100.00
2023-12-03T03:22:13.286Z,100.00
2023-12-03T03:24:16.234Z,100.00
2023-12-03T03:26:19.257Z,100.00
2023-12-03T03:28:23.817Z,100.00
2023-12-03T03:30:28.191Z,100.00
2023-12-03T03:32:31.226Z,100.00
2023-12-03T03:34:34.321Z,100.00
2023-12-03T03:36:37.321Z,100.00
2023-12-03T03:38:40.761Z,100.00
2023-12-03T03:40:43.806Z,100.00
2023-12-03T03:42:46.768Z,100.00
2023-12-03T03:44:50.846Z,100.00
2023-12-03T03:46:55.468Z,100.00
2023-12-03T03:48:58.882Z,100.00
2023-12-03T03:51:01.746Z,100.00
2023-12-03T03:53:04.642Z,100.00
2023-12-03T03:55:08.255Z,100.00
2023-12-03T03:57:11.220Z,100.00
2023-12-03T03:59:14.468Z,100.00
2023-12-03T04:01:18.628Z,100.00
2023-12-03T04:03:23.217Z,100.00
2023-12-03T04:05:26.635Z,100.00
2023-12-03T04:07:29.922Z,100.00
2023-12-03T04:09:33.413Z,100.00
2023-12-03T04:11:40.947Z,100.00
2023-12-03T04:13:43.950Z,100.00
2023-12-03T04:15:47.121Z,100.00
2023-12-03T04:17:50.190Z,100.00
2023-12-03T04:19:54.597Z,100.00
2023-12-03T04:21:57.521Z,100.00
2023-12-03T04:24:00.566Z,100.00
2023-12-03T04:26:03.577Z,100.00
2023-12-03T04:28:07.978Z,100.00
2023-12-03T04:30:12.276Z,100.00
2023-12-03T04:32:15.188Z,100.00
2023-12-03T04:34:18.177Z,100.00
2023-12-03T04:36:24.434Z,100.00
2023-12-03T04:38:27.409Z,100.00
2023-12-03T04:40:30.328Z,100.00
2023-12-03T04:42:33.453Z,100.00
2023-12-03T04:44:36.513Z,100.00
2023-12-03T04:46:42.721Z,100.00
2023-12-03T04:48:45.864Z,100.00
2023-12-03T04:50:49.313Z,100.00
2023-12-03T04:52:53.798Z,100.00
2023-12-03T04:54:56.824Z,100.00
2023-12-03T04:56:59.974Z,100.00
2023-12-03T04:59:03.275Z,100.00
2023-12-03T05:01:06.585Z,100.00
2023-12-03T05:03:10.012Z,100.00
2023-12-03T05:05:13.126Z,100.00
2023-12-03T05:07:16.938Z,100.00
2023-12-03T05:09:21.497Z,100.00
2023-12-03T05:11:24.682Z,100.00
2023-12-03T05:13:27.527Z,100.00
2023-12-03T05:15:30.733Z,100.00
2023-12-03T05:17:33.981Z,100.00
2023-12-03T05:19:37.048Z,100.00
2023-12-03T05:21:39.978Z,100.00
2023-12-03T05:23:43.084Z,100.00
2023-12-03T05:25:48.643Z,100.00
2023-12-03T05:27:52.243Z,100.00
2023-12-03T05:29:55.314Z,100.00
2023-12-03T05:31:58.278Z,100.00
2023-12-03T05:34:01.258Z,100.00
2023-12-03T05:36:05.219Z,100.00
2023-12-03T05:38:08.248Z,100.00
2023-12-03T05:40:11.800Z,100.00
2023-12-03T05:42:16.468Z,100.00
2023-12-03T05:44:19.645Z,100.00
2023-12-03T05:46:22.682Z,100.00
2023-12-03T05:48:25.776Z,100.00
2023-12-03T05:50:28.847Z,100.00
2023-12-03T05:52:32.137Z,100.00
2023-12-03T05:54:35.301Z,100.00
2023-12-03T05:56:38.343Z,100.00
2023-12-03T05:58:42.662Z,100.00
2023-12-03T06:00:45.678Z,100.00
2023-12-03T06:02:48.618Z,100.00
2023-12-03T06:04:51.690Z,100.00
2023-12-03T06:06:54.801Z,100.00
2023-12-03T06:08:57.857Z,100.00
2023-12-03T06:11:01.197Z,100.00
2023-12-03T06:13:04.155Z,100.00
2023-12-03T06:15:10.463Z,100.00
2023-12-03T06:17:13.536Z,100.00
2023-12-03T06:19:16.553Z,100.00
2023-12-03T06:21:19.854Z,100.00
2023-12-03T06:23:22.848Z,100.00
2023-12-03T06:25:25.898Z,100.00
2023-12-03T06:27:28.902Z,100.00
2023-12-03T06:29:32.075Z,100.00
2023-12-03T06:31:36.483Z,100.00
2023-12-03T06:33:39.734Z,100.00
2023-12-03T06:35:42.796Z,100.00
2023-12-03T06:37:45.808Z,100.00
2023-12-03T06:39:49.236Z,100.00
2023-12-03T06:41:52.391Z,100.00
2023-12-03T06:43:55.269Z,100.00
2023-12-03T06:46:00.563Z,100.00
2023-12-03T06:48:05.543Z,100.00
2023-12-03T06:50:09.453Z,100.00
2023-12-03T06:52:12.307Z,100.00
2023-12-03T06:54:15.385Z,100.00
2023-12-03T06:56:18.307Z,100.00
2023-12-03T06:58:21.289Z,100.00
2023-12-03T07:00:27.063Z,100.00
2023-12-03T07:02:30.089Z,100.00
2023-12-03T07:04:34.440Z,100.00
2023-12-03T07:06:37.647Z,100.00
2023-12-03T07:08:40.560Z,100.00
2023-12-03T07:10:43.674Z,100.00
2023-12-03T07:12:46.955Z,100.00
2023-12-03T07:14:50.177Z,100.00
2023-12-03T07:16:53.136Z,100.00
2023-12-03T07:18:56.704Z,100.00
2023-12-03T07:21:01.101Z,100.00
2023-12-03T07:23:04.063Z,100.00
2023-12-03T07:25:09.083Z,100.00
2023-12-03T07:27:12.037Z,100.00
2023-12-03T07:29:14.983Z,100.00
2023-12-03T07:31:18.118Z,100.00
2023-12-03T07:33:21.152Z,100.00
2023-12-03T07:35:24.289Z,100.00
2023-12-03T07:37:28.672Z,100.00
2023-12-03T07:39:31.728Z,99.81
2023-12-03T07:41:34.703Z,98.83
2023-12-03T07:43:37.914Z,99.11
2023-12-03T07:45:40.784Z,98.87
2023-12-03T07:47:44.379Z,98.50
2023-12-03T07:49:47.387Z,98.21
2023-12-03T07:51:50.706Z,100.00
2023-12-03T07:53:55.267Z,97.94
2023-12-03T07:55:58.472Z,97.30
2023-12-03T07:58:01.454Z,99.22
2023-12-03T08:00:06.597Z,97.78
2023-12-03T08:02:15.537Z,97.97
2023-12-03T08:04:18.685Z,95.62
2023-12-03T08:06:21.679Z,95.62
2023-12-03T08:08:24.746Z,95.97
2023-12-03T08:10:29.139Z,96.36
2023-12-03T08:12:32.179Z,96.80
2023-12-03T08:14:35.206Z,97.91
2023-12-03T08:16:38.374Z,98.31
2023-12-03T08:18:41.490Z,98.50
2023-12-03T08:20:44.637Z,96.36
2023-12-03T08:22:47.752Z,96.03
2023-12-03T08:24:54.111Z,96.28
2023-12-03T08:26:58.563Z,95.89
2023-12-03T08:29:01.996Z,97.39
2023-12-03T08:31:05.543Z,97.12
2023-12-03T08:33:08.800Z,97.54
2023-12-03T08:35:12.078Z,96.89
2023-12-03T08:37:15.389Z,96.90
2023-12-03T08:39:18.287Z,96.98
2023-12-03T08:41:21.365Z,96.24
2023-12-03T08:43:25.741Z,95.88
2023-12-03T08:45:29.391Z,96.21
2023-12-03T08:47:32.481Z,96.81
2023-12-03T08:49:35.537Z,98.00
2023-12-03T08:51:40.114Z,97.29
2023-12-03T08:53:43.312Z,96.39
2023-12-03T08:55:46.278Z,96.76
2023-12-03T08:57:50.231Z,96.56
2023-12-03T08:59:54.746Z,96.74
2023-12-03T09:01:58.552Z,96.04
2023-12-03T09:04:01.536Z,96.89
2023-12-03T09:06:04.923Z,97.31
2023-12-03T09:08:07.907Z,97.05
2023-12-03T09:10:11.091Z,96.08
2023-12-03T09:12:15.772Z,96.06
2023-12-03T09:14:19.780Z,96.48
2023-12-03T09:16:24.568Z,95.44
2023-12-03T09:18:28.287Z,95.59
2023-12-03T09:20:31.426Z,96.38
2023-12-03T09:22:34.978Z,95.27
2023-12-03T09:24:37.937Z,95.56
2023-12-03T09:26:43.481Z,96.65
2023-12-03T09:28:46.923Z,95.63
2023-12-03T09:30:49.867Z,96.27
2023-12-03T09:32:55.098Z,95.59
2023-12-03T09:34:58.190Z,95.31
2023-12-03T09:37:02.534Z,95.62
2023-12-03T09:39:09.228Z,94.90
2023-12-03T09:41:17.184Z,95.09
2023-12-03T09:43:21.968Z,95.78
2023-12-03T09:45:28.523Z,95.14
2023-12-03T09:47:36.484Z,93.36
2023-12-03T09:49:47.097Z,92.94
2023-12-03T09:51:51.068Z,93.10
2023-12-03T09:53:57.890Z,92.02
2023-12-03T09:56:01.366Z,92.75
2023-12-03T09:58:04.743Z,92.03
2023-12-03T10:00:09.141Z,91.46
2023-12-03T10:02:16.105Z,92.36
2023-12-03T10:04:19.347Z,92.26
2023-12-03T10:06:24.338Z,92.37
2023-12-03T10:08:30.373Z,91.62
2023-12-03T10:10:36.101Z,92.62
2023-12-03T10:12:44.550Z,91.99
2023-12-03T10:14:47.984Z,91.24
2023-12-03T10:16:51.383Z,91.09
2023-12-03T10:18:54.539Z,90.54
2023-12-03T10:21:07.923Z,89.95
2023-12-03T10:23:17.401Z,89.29
2023-12-03T10:25:31.018Z,89.92
2023-12-03T10:27:34.234Z,90.47
2023-12-03T10:29:39.107Z,89.37
2023-12-03T10:31:42.114Z,88.75
2023-12-03T10:33:45.572Z,88.00
2023-12-03T10:35:48.727Z,88.93
2023-12-03T10:37:52.491Z,88.63
2023-12-03T10:39:58.170Z,87.80
2023-12-03T10:42:01.262Z,88.47
2023-12-03T10:44:04.430Z,87.28
2023-12-03T10:46:09.849Z,89.24
2023-12-03T10:48:13.076Z,87.48
2023-12-03T10:50:16.210Z,87.92
2023-12-03T10:52:20.440Z,88.51
2023-12-03T10:54:23.811Z,87.35
2023-12-03T10:56:29.830Z,87.02
2023-12-03T10:58:34.751Z,88.53
2023-12-03T11:00:41.402Z,88.35
2023-12-03T11:02:49.551Z,88.19
2023-12-03T11:05:00.355Z,87.16
2023-12-03T11:07:06.205Z,88.31
2023-12-03T11:09:09.516Z,88.67
2023-12-03T11:11:14.015Z,86.65
2023-12-03T11:13:22.736Z,86.91
2023-12-03T11:15:29.602Z,87.56
2023-12-03T11:17:39.227Z,87.59
2023-12-03T11:19:50.501Z,88.08
2023-12-03T11:22:06.874Z,87.05
2023-12-03T11:24:49.900Z,87.72
2023-12-03T11:26:53.118Z,88.21
2023-12-03T11:29:01.110Z,86.65
2023-12-03T11:31:04.416Z,87.50
2023-12-03T11:33:09.751Z,85.98
2023-12-03T11:35:16.387Z,85.42
2023-12-03T11:37:22.667Z,85.92
2023-12-03T11:39:25.876Z,85.28
2023-12-03T11:41:40.094Z,87.26
2023-12-03T11:43:44.379Z,85.31
2023-12-03T11:45:50.051Z,85.96
2023-12-03T11:48:10.025Z,86.10
2023-12-03T11:50:17.620Z,86.71
2023-12-03T11:52:22.195Z,84.28
2023-12-03T11:54:27.325Z,84.86
2023-12-03T11:56:31.126Z,84.96
2023-12-03T11:58:34.816Z,84.71
2023-12-03T12:00:40.028Z,83.12
2023-12-03T12:02:44.813Z,83.93
2023-12-03T12:04:48.037Z,83.65
2023-12-03T12:06:52.442Z,82.59
2023-12-03T12:08:57.855Z,84.48
2023-12-03T12:11:00.844Z,84.86
2023-12-03T12:13:05.896Z,83.42
2023-12-03T12:15:09.891Z,84.08
2023-12-03T12:17:13.376Z,83.28
2023-12-03T12:19:18.093Z,83.79
2023-12-03T12:21:23.002Z,84.55
2023-12-03T12:23:26.568Z,84.53
2023-12-03T12:25:30.288Z,83.13
2023-12-03T12:27:33.297Z,84.44
2023-12-03T12:29:36.393Z,84.46
2023-12-03T12:31:39.514Z,83.74
2023-12-03T12:33:42.757Z,84.74
2023-12-03T12:35:51.895Z,84.28
2023-12-03T12:38:01.890Z,86.13
2023-12-03T12:40:10.260Z,86.41
2023-12-03T12:42:24.609Z,85.38
2023-12-03T12:44:46.385Z,85.01
2023-12-03T12:46:54.188Z,86.04
2023-12-03T12:49:15.654Z,85.97
2023-12-03T12:51:24.976Z,86.03
2023-12-03T12:53:48.448Z,87.07
2023-12-03T12:55:52.099Z,86.13
2023-12-03T12:57:55.906Z,87.17
2023-12-03T12:59:58.961Z,87.84
2023-12-03T13:02:01.984Z,87.06
2023-12-03T13:04:07.097Z,86.70
2023-12-03T13:06:12.023Z,86.62
2023-12-03T13:08:16.537Z,87.07
2023-12-03T13:10:19.805Z,86.10
2023-12-03T13:12:22.891Z,86.22
2023-12-03T13:14:25.751Z,85.04
2023-12-03T13:16:30.017Z,84.21
2023-12-03T13:18:33.290Z,84.99
2023-12-03T13:20:37.523Z,84.11
2023-12-03T13:22:40.448Z,85.76
2023-12-03T13:24:44.903Z,84.64
2023-12-03T13:26:48.618Z,84.84
2023-12-03T13:28:51.758Z,85.85
2023-12-03T13:30:55.141Z,86.03
2023-12-03T13:33:00.207Z,85.42
2023-12-03T13:35:06.244Z,85.46
2023-12-03T13:37:09.613Z,85.73
2023-12-03T13:39:12.591Z,86.07
2023-12-03T13:41:17.737Z,86.40
2023-12-03T13:43:20.854Z,86.29
2023-12-03T13:45:24.535Z,86.03
2023-12-03T13:47:27.652Z,86.57
2023-12-03T13:49:30.889Z,86.49
2023-12-03T13:51:34.189Z,86.10
2023-12-03T13:53:37.740Z,86.33
2023-12-03T13:55:40.618Z,86.86
2023-12-03T13:57:45.176Z,87.04
2023-12-03T14:01:51.238Z,86.91
2023-12-03T14:03:54.187Z,87.58
2023-12-03T14:05:57.383Z,87.54
2023-12-03T14:08:00.444Z,87.85
2023-12-03T14:10:03.402Z,89.24
2023-12-03T14:12:06.732Z,89.06
2023-12-03T14:14:11.925Z,89.34
2023-12-03T14:16:16.133Z,90.23
2023-12-03T14:18:19.408Z,90.17
2023-12-03T14:20:22.444Z,90.08
2023-12-03T14:22:25.637Z,90.05
2023-12-03T14:24:28.630Z,90.39
2023-12-03T14:26:31.604Z,90.33
2023-12-03T14:28:38.084Z,90.00
2023-12-03T14:30:44.007Z,90.57
2023-12-03T14:32:48.165Z,90.71
2023-12-03T14:34:51.110Z,90.38
2023-12-03T14:36:53.956Z,90.87
2023-12-03T14:38:56.988Z,89.97
2023-12-03T14:40:59.918Z,90.66
2023-12-03T14:43:02.907Z,90.51
2023-12-03T14:45:06.853Z,92.10
2023-12-03T14:47:11.351Z,92.90
2023-12-03T14:49:14.317Z,93.57
2023-12-03T14:51:17.793Z,93.98
2023-12-03T14:53:21.183Z,95.00
2023-12-03T14:55:24.291Z,95.17
2023-12-03T14:57:27.613Z,95.00
2023-12-03T14:59:30.613Z,95.42
2023-12-03T15:01:34.780Z,95.45
2023-12-03T15:03:40.426Z,95.66
2023-12-03T15:05:43.289Z,96.42
2023-12-03T15:07:46.633Z,97.04
2023-12-03T15:09:52.574Z,96.88
2023-12-03T15:11:55.283Z,97.25
2023-12-03T15:13:58.146Z,96.68
2023-12-03T15:16:01.280Z,96.69
2023-12-03T15:18:04.524Z,97.13
2023-12-03T15:20:10.286Z,97.10
2023-12-03T15:22:13.409Z,97.41
2023-12-03T15:24:16.510Z,98.13
2023-12-03T15:26:19.427Z,97.70
2023-12-03T15:28:22.582Z,98.61
2023-12-03T15:30:27.793Z,98.03
2023-12-03T15:32:33.495Z,99.58
2023-12-03T15:34:36.510Z,99.70
2023-12-03T15:36:41.021Z,99.09
2023-12-03T15:38:43.974Z,99.53
2023-12-03T15:40:47.081Z,99.40
2023-12-03T15:42:55.938Z,100.00
2023-12-03T15:44:59.119Z,100.00
2023-12-03T15:47:02.123Z,100.00
2023-12-03T15:49:09.794Z,100.00
2023-12-03T15:51:16.852Z,100.00
2023-12-03T15:53:21.306Z,100.00
2023-12-03T15:55:24.861Z,99.97
2023-12-03T15:57:28.051Z,100.00
2023-12-03T15:59:31.016Z,100.00
2023-12-03T16:01:34.025Z,100.00
2023-12-03T16:03:37.382Z,100.00
2023-12-03T16:05:40.431Z,100.00
2023-12-03T16:07:46.979Z,100.00
2023-12-03T16:09:51.475Z,100.00
2023-12-03T16:11:55.366Z,100.00
2023-12-03T16:13:58.448Z,99.97
2023-12-03T16:16:03.677Z,100.00
2023-12-03T16:18:06.891Z,100.00
2023-12-03T16:20:10.441Z,100.00
2023-12-03T16:22:13.499Z,100.00
2023-12-03T16:24:16.572Z,99.99
2023-12-03T16:26:21.122Z,100.00
2023-12-03T16:28:24.114Z,99.91
2023-12-03T16:30:27.259Z,100.00
2023-12-03T16:32:30.245Z,99.94
2023-12-03T16:34:33.422Z,100.00
2023-12-03T16:36:36.987Z,99.80
2023-12-03T16:38:39.987Z,99.51
2023-12-03T16:40:44.041Z,100.00
2023-12-03T16:42:48.458Z,99.85
2023-12-03T16:44:52.477Z,99.91
2023-12-03T16:46:55.558Z,100.00
2023-12-03T16:48:59.373Z,100.00
2023-12-03T16:51:03.025Z,100.00
2023-12-03T16:53:06.528Z,100.00
2023-12-03T16:55:10.063Z,100.00
2023-12-03T16:57:13.870Z,99.91
2023-12-03T16:59:20.349Z,100.00
2023-12-03T17:01:23.365Z,99.88
2023-12-03T17:03:26.381Z,100.00
2023-12-03T17:05:29.868Z,100.00
2023-12-03T17:07:33.640Z,100.00
2023-12-03T17:09:37.566Z,100.00
2023-12-03T17:11:40.830Z,100.00
2023-12-03T17:13:43.994Z,100.00
2023-12-03T17:15:49.116Z,100.00
2023-12-03T17:17:52.023Z,100.00
2023-12-03T17:19:55.106Z,100.00
2023-12-03T17:21:59.330Z,100.00
2023-12-03T17:24:02.683Z,100.00
2023-12-03T17:26:08.390Z,100.00
2023-12-03T17:28:11.012Z,100.00
2023-12-03T17:30:14.248Z,100.00
2023-12-03T17:32:18.736Z,100.00
2023-12-03T17:34:21.817Z,100.00
2023-12-03T17:36:24.930Z,100.00
2023-12-03T17:38:28.318Z,100.00
2023-12-03T17:40:31.473Z,100.00
2023-12-03T17:42:34.991Z,100.00
2023-12-03T17:44:37.945Z,99.88
2023-12-03T17:46:40.945Z,100.00
2023-12-03T17:48:46.383Z,100.00
2023-12-03T17:50:49.507Z,100.00
2023-12-03T17:52:52.528Z,99.44
2023-12-03T17:54:55.499Z,98.29
2023-12-03T17:56:58.497Z,98.90
2023-12-03T17:59:01.506Z,99.80
2023-12-03T18:01:04.994Z,99.62
2023-12-03T18:03:11.528Z,100.00
2023-12-03T18:05:16.202Z,99.13
2023-12-03T18:07:19.125Z,99.83
2023-12-03T18:09:22.136Z,99.84
2023-12-03T18:11:25.531Z,100.00
2023-12-03T18:13:29.936Z,100.00
2023-12-03T18:15:34.328Z,100.00
2023-12-03T18:17:38.982Z,100.00
2023-12-03T18:19:43.437Z,100.00
2023-12-03T18:21:47.921Z,100.00
2023-12-03T18:23:50.914Z,100.00
2023-12-03T18:25:53.984Z,100.00
2023-12-03T18:27:57.015Z,100.00
2023-12-03T18:30:00.677Z,100.00
2023-12-03T18:32:03.695Z,99.62
2023-12-03T18:34:07.114Z,99.32
2023-12-03T18:36:14.528Z,99.69
2023-12-03T18:38:20.074Z,99.26
2023-12-03T18:40:24.338Z,99.68
2023-12-03T18:42:28.230Z,99.81
2023-12-03T18:44:33.011Z,99.92
2023-12-03T18:46:36.357Z,100.00
2023-12-03T18:48:39.425Z,100.00
2023-12-03T18:50:42.654Z,99.96
2023-12-03T18:52:45.697Z,100.00
2023-12-03T18:54:50.221Z,100.00
2023-12-03T18:56:53.145Z,99.81
2023-12-03T18:58:56.080Z,99.97
2023-12-03T19:00:59.215Z,99.36
2023-12-03T19:03:02.283Z,99.64
2023-12-03T19:05:06.079Z,98.70
2023-12-03T19:07:09.114Z,98.63
2023-12-03T19:09:12.126Z,98.63
2023-12-03T19:11:16.636Z,98.76
2023-12-03T19:13:26.759Z,98.93
2023-12-03T19:15:30.324Z,98.34
2023-12-03T19:17:33.337Z,97.98
2023-12-03T19:19:36.956Z,98.74
2023-12-03T19:23:43.404Z,98.51
2023-12-03T19:25:46.335Z,98.25
2023-12-03T19:27:51.004Z,98.33
2023-12-03T19:29:56.079Z,97.17
2023-12-03T19:31:59.191Z,97.14
2023-12-03T19:34:03.849Z,96.22
2023-12-03T19:36:08.163Z,96.67
2023-12-03T19:38:13.048Z,97.05
2023-12-03T19:40:16.208Z,96.39
2023-12-03T19:42:19.347Z,96.95
2023-12-03T19:44:23.973Z,97.13
2023-12-03T19:46:26.969Z,97.86
2023-12-03T19:48:30.257Z,97.31
2023-12-03T19:50:35.489Z,96.87
2023-12-03T19:52:39.666Z,96.40
2023-12-03T19:54:43.152Z,96.76
2023-12-03T19:56:46.160Z,96.41
2023-12-03T19:58:50.348Z,96.35
2023-12-03T20:00:55.193Z,96.25
2023-12-03T20:02:58.117Z,96.24
2023-12-03T20:05:01.523Z,96.99
2023-12-03T20:07:05.420Z,97.65
2023-12-03T20:09:08.711Z,97.88
2023-12-03T20:11:11.904Z,96.72
2023-12-03T20:13:15.002Z,97.27
2023-12-03T20:15:25.019Z,96.65
2023-12-03T20:17:33.869Z,96.82
2023-12-03T20:19:37.389Z,96.99
2023-12-03T20:21:40.742Z,97.10
2023-12-03T20:23:46.557Z,97.72
2023-12-03T20:25:53.168Z,98.23
2023-12-03T20:27:56.176Z,96.81
2023-12-03T20:29:59.841Z,97.43
2023-12-03T20:32:02.948Z,97.10
2023-12-03T20:34:07.645Z,97.38
2023-12-03T20:36:12.755Z,96.91
2023-12-03T20:38:15.656Z,96.68
2023-12-03T20:40:18.574Z,96.77
2023-12-03T20:42:21.769Z,96.55
2023-12-03T20:44:24.632Z,96.90
2023-12-03T20:46:28.114Z,96.54
2023-12-03T20:48:31.063Z,97.13
2023-12-03T20:50:35.712Z,97.26
2023-12-03T20:52:38.620Z,96.65
2023-12-03T20:54:41.745Z,97.56
2023-12-03T20:56:44.787Z,97.04
2023-12-03T20:58:47.754Z,97.42
2023-12-03T21:00:51.228Z,97.45
2023-12-03T21:02:54.380Z,97.19
2023-12-03T21:04:57.465Z,97.50
2023-12-03T21:07:02.153Z,97.40
2023-12-03T21:09:05.148Z,97.42
2023-12-03T21:11:08.762Z,97.80
2023-12-03T21:13:12.886Z,98.29
2023-12-03T21:15:16.424Z,97.88
2023-12-03T21:17:19.421Z,98.22
2023-12-03T21:19:22.434Z,97.73
2023-12-03T21:21:25.377Z,97.05
2023-12-03T21:23:29.985Z,97.08
2023-12-03T21:25:34.313Z,97.93
2023-12-03T21:27:37.652Z,98.46
2023-12-03T21:29:40.773Z,98.27
2023-12-03T21:31:43.869Z,98.54
2023-12-03T21:33:47.207Z,97.95
2023-12-03T21:35:52.589Z,98.15
2023-12-03T21:37:55.597Z,98.34
2023-12-03T21:40:00.316Z,98.02
2023-12-03T21:42:03.324Z,98.31
2023-12-03T21:44:06.438Z,98.61
2023-12-03T21:46:09.511Z,98.21
2023-12-03T21:48:12.995Z,98.21
2023-12-03T21:50:16.000Z,97.61
2023-12-03T21:52:21.052Z,98.30
2023-12-03T21:54:24.526Z,98.51
2023-12-03T21:56:29.486Z,98.37
2023-12-03T21:58:34.122Z,98.43
2023-12-03T22:00:37.429Z,97.41
2023-12-03T22:02:40.383Z,97.29
2023-12-03T22:04:43.386Z,98.59
2023-12-03T22:06:46.538Z,97.60
2023-12-03T22:08:49.603Z,98.74
2023-12-03T22:10:54.337Z,98.13
2023-12-03T22:12:58.986Z,98.41
2023-12-03T22:15:02.215Z,97.85
2023-12-03T22:17:06.487Z,98.52
2023-12-03T22:19:09.500Z,98.57
2023-12-03T22:21:12.881Z,99.09
2023-12-03T22:23:15.910Z,99.04
2023-12-03T22:25:18.867Z,98.99
2023-12-03T22:27:22.153Z,98.43
2023-12-03T22:29:35.418Z,98.65
2023-12-03T22:31:46.986Z,98.91
2023-12-03T22:33:50.006Z,98.60
2023-12-03T22:35:53.045Z,98.38
2023-12-03T22:37:56.033Z,99.45
2023-12-03T22:39:58.960Z,98.39
2023-12-03T22:42:01.925Z,98.51
2023-12-03T22:44:05.147Z,98.28
2023-12-03T22:46:09.976Z,98.43
2023-12-03T22:48:12.908Z,99.21
2023-12-03T22:50:15.964Z,99.24
2023-12-03T22:52:18.938Z,98.45
2023-12-03T22:54:21.918Z,98.62
2023-12-03T22:56:24.904Z,98.44
2023-12-03T22:58:28.167Z,99.10
2023-12-03T23:00:31.640Z,98.21
2023-12-03T23:02:37.038Z,98.39
2023-12-03T23:04:39.971Z,98.46
2023-12-03T23:06:43.717Z,99.22
2023-12-03T23:08:46.648Z,99.38
2023-12-03T23:10:49.565Z,99.06
2023-12-03T23:12:52.774Z,99.85
2023-12-03T23:14:55.897Z,99.74
2023-12-03T23:16:58.814Z,99.95
2023-12-03T23:19:03.848Z,99.82
2023-12-03T23:21:07.291Z,99.55
2023-12-03T23:23:10.311Z,99.55
2023-12-03T23:25:13.531Z,99.89
2023-12-03T23:27:19.872Z,99.43
2023-12-03T23:29:23.292Z,98.99
2023-12-03T23:31:26.592Z,99.39
2023-12-03T23:33:30.545Z,99.04
2023-12-03T23:35:35.210Z,99.90
2023-12-03T23:37:38.207Z,99.98
2023-12-03T23:39:42.498Z,99.90
2023-12-03T23:41:45.520Z,100.00
2023-12-03T23:43:49.090Z,99.50
2023-12-03T23:45:52.095Z,99.75
2023-12-03T23:47:55.266Z,99.56
2023-12-03T23:49:58.157Z,99.73
2023-12-03T23:52:02.844Z,99.22
2023-12-03T23:54:06.222Z,99.65
2023-12-03T23:56:10.617Z,98.73
2023-12-03T23:58:13.524Z,99.15
